createdAt,value
2023-05-01T00:04:09.315Z,81.88
2023-05-01T00:09:15.908Z,81.75
2023-05-01T00:14:21.605Z,82.19
2023-05-01T00:19:27.407Z,82.26
2023-05-01T00:24:33.470Z,82.24
2023-05-01T00:29:39.039Z,82.10
2023-05-01T00:34:46.224Z,82.86
2023-05-01T00:39:51.948Z,82.93
2023-05-01T00:44:57.707Z,83.23
2023-05-01T00:50:03.995Z,83.20
2023-05-01T00:55:10.542Z,83.32
2023-05-01T01:00:17.505Z,83.74
2023-05-01T01:05:28.351Z,84.56
2023-05-01T01:10:35.547Z,84.69
2023-05-01T01:15:47.719Z,84.82
2023-05-01T01:21:01.656Z,84.89
2023-05-01T01:26:30.333Z,84.93
2023-05-01T01:31:46.757Z,84.61
2023-05-01T01:37:01.655Z,83.72
2023-05-01T01:42:13.686Z,84.54
2023-05-01T01:47:22.115Z,85.04
2023-05-01T01:52:29.294Z,85.71
2023-05-01T01:57:36.844Z,86.14
2023-05-01T02:02:43.331Z,85.98
2023-05-01T02:07:51.664Z,86.14
2023-05-01T02:13:00.262Z,86.43
2023-05-01T02:18:07.114Z,86.39
2023-05-01T02:23:13.850Z,86.49
2023-05-01T02:28:24.475Z,87.00
2023-05-01T02:33:29.972Z,87.04
2023-05-01T02:38:36.360Z,87.39
2023-05-01T02:43:43.914Z,87.56
2023-05-01T02:48:51.144Z,87.36
2023-05-01T02:53:58.176Z,87.55
2023-05-01T02:59:06.596Z,87.90
2023-05-01T03:04:12.923Z,87.97
2023-05-01T03:09:19.285Z,88.20
2023-05-01T03:14:25.195Z,88.61
2023-05-01T03:19:30.961Z,88.11
2023-05-01T03:24:37.161Z,87.36
2023-05-01T03:29:43.093Z,86.99
2023-05-01T03:34:48.991Z,87.39
2023-05-01T03:39:55.401Z,87.71
2023-05-01T03:45:29.979Z,87.62
2023-05-01T03:50:35.530Z,88.36
2023-05-01T03:55:41.524Z,88.81
2023-05-01T04:00:47.570Z,88.89
2023-05-01T04:05:53.382Z,89.02
2023-05-01T04:11:00.013Z,89.00
2023-05-01T04:16:06.869Z,87.83
2023-05-01T04:21:14.536Z,86.41
2023-05-01T04:26:20.434Z,86.09
2023-05-01T04:31:29.013Z,81.91
2023-05-01T04:36:34.934Z,71.44
2023-05-01T04:41:40.474Z,61.24
2023-05-01T04:46:46.334Z,54.09
2023-05-01T04:51:52.421Z,48.63
2023-05-01T04:57:00.549Z,44.22
2023-05-01T05:02:06.679Z,40.71
2023-05-01T05:07:13.896Z,37.67
2023-05-01T05:12:40.096Z,34.46
2023-05-01T05:17:45.791Z,31.86
2023-05-01T05:22:51.552Z,30.52
2023-05-01T05:28:01.068Z,28.44
2023-05-01T05:33:09.275Z,27.24
2023-05-01T05:38:16.150Z,25.73
2023-05-01T05:43:22.332Z,24.10
2023-05-01T05:48:28.273Z,23.56
2023-05-01T05:53:33.687Z,22.45
2023-05-01T05:58:39.249Z,21.99
2023-05-01T06:03:44.899Z,21.27
2023-05-01T06:08:50.693Z,19.98
2023-05-01T06:13:57.441Z,19.80
2023-05-01T06:19:03.657Z,18.83
2023-05-01T06:24:09.378Z,18.10
2023-05-01T06:29:24.332Z,18.01
2023-05-01T06:34:30.300Z,17.01
2023-05-01T06:39:36.341Z,17.06
2023-05-01T06:44:42.156Z,17.43
2023-05-01T06:49:47.848Z,16.98
2023-05-01T06:54:56.013Z,16.62
2023-05-01T07:00:01.932Z,15.62
2023-05-01T07:05:08.546Z,16.03
2023-05-01T07:10:14.639Z,16.08
2023-05-01T07:15:21.129Z,15.71
2023-05-01T07:20:27.097Z,16.21
2023-05-01T07:25:33.175Z,15.43
2023-05-01T07:30:38.844Z,15.25
2023-05-01T07:35:44.435Z,15.54
2023-05-01T07:40:52.277Z,15.95
2023-05-01T07:45:59.433Z,15.59
2023-05-01T07:51:05.622Z,15.14
2023-05-01T07:56:11.575Z,14.72
2023-05-01T08:01:17.412Z,15.03
2023-05-01T08:06:23.073Z,15.63
2023-05-01T08:11:29.960Z,15.83
2023-05-01T08:16:36.613Z,15.08
2023-05-01T08:21:42.047Z,15.19
2023-05-01T08:26:48.926Z,15.29
2023-05-01T08:31:56.083Z,15.80
2023-05-01T08:37:02.256Z,16.32
2023-05-01T08:42:09.856Z,16.48
2023-05-01T08:47:18.404Z,16.50
2023-05-01T08:52:26.228Z,16.52
2023-05-01T08:57:32.564Z,16.55
2023-05-01T09:02:41.241Z,16.81
2023-05-01T09:07:48.533Z,16.10
2023-05-01T09:12:58.580Z,16.52
2023-05-01T09:18:04.625Z,17.56
2023-05-01T09:23:11.384Z,16.41
2023-05-01T09:28:16.912Z,17.14
2023-05-01T09:33:22.477Z,17.73
2023-05-01T09:38:29.392Z,19.47
2023-05-01T09:43:35.394Z,20.56
2023-05-01T09:48:41.001Z,21.80
2023-05-01T09:53:46.351Z,18.91
2023-05-01T09:58:54.205Z,18.62
2023-05-01T10:03:59.685Z,19.42
2023-05-01T10:09:16.787Z,20.58
2023-05-01T10:14:24.206Z,17.63
2023-05-01T10:19:31.153Z,18.65
2023-05-01T10:24:38.169Z,19.64
2023-05-01T10:29:48.245Z,21.23
2023-05-01T10:34:59.516Z,18.64
2023-05-01T10:40:33.200Z,19.72
2023-05-01T10:45:39.786Z,19.23
2023-05-01T10:51:11.461Z,19.07
2023-05-01T10:56:44.179Z,18.24
2023-05-01T11:01:54.186Z,19.58
2023-05-01T11:07:17.938Z,19.12
2023-05-01T11:12:51.738Z,19.40
2023-05-01T11:17:58.139Z,20.26
2023-05-01T11:23:04.099Z,19.30
2023-05-01T11:28:11.620Z,20.51
2023-05-01T11:33:25.977Z,20.40
2023-05-01T11:38:31.872Z,20.46
2023-05-01T11:43:51.612Z,20.49
2023-05-01T11:48:58.488Z,20.71
2023-05-01T11:54:05.301Z,21.05
2023-05-01T11:59:18.173Z,20.82
2023-05-01T12:04:31.586Z,22.23
2023-05-01T12:09:38.237Z,21.31
2023-05-01T12:14:43.854Z,22.78
2023-05-01T12:19:49.871Z,21.44
2023-05-01T12:24:56.280Z,22.34
2023-05-01T12:30:02.390Z,22.70
2023-05-01T12:35:16.537Z,23.17
2023-05-01T12:40:22.896Z,22.83
2023-05-01T12:45:29.022Z,23.52
2023-05-01T12:50:39.304Z,24.63
2023-05-01T12:55:47.306Z,22.64
2023-05-01T13:00:55.138Z,22.88
2023-05-01T13:06:03.199Z,24.35
2023-05-01T13:11:14.886Z,22.92
2023-05-01T13:16:21.412Z,22.74
2023-05-01T13:21:27.329Z,22.99
2023-05-01T13:26:35.967Z,23.38
2023-05-01T13:31:45.259Z,23.01
2023-05-01T13:36:50.913Z,24.64
2023-05-01T13:41:56.590Z,23.56
2023-05-01T13:47:04.479Z,23.79
2023-05-01T13:52:13.271Z,23.85
2023-05-01T13:57:18.700Z,23.97
2023-05-01T14:02:27.465Z,24.15
2023-05-01T14:07:33.161Z,23.90
2023-05-01T14:12:40.768Z,23.82
2023-05-01T14:17:48.557Z,24.24
2023-05-01T14:22:56.328Z,25.06
2023-05-01T14:28:05.837Z,24.61
2023-05-01T14:33:13.516Z,25.23
2023-05-01T14:38:21.455Z,24.60
2023-05-01T14:43:28.668Z,25.14
2023-05-01T14:48:37.138Z,26.01
2023-05-01T14:53:43.749Z,25.42
2023-05-01T14:58:49.767Z,25.29
2023-05-01T15:03:55.534Z,25.51
2023-05-01T15:09:02.361Z,25.56
2023-05-01T15:14:08.011Z,25.52
2023-05-01T15:19:13.570Z,26.05
2023-05-01T15:24:23.455Z,26.56
2023-05-01T15:29:29.138Z,26.86
2023-05-01T15:34:34.844Z,27.18
2023-05-01T15:39:40.706Z,27.56
2023-05-01T15:44:47.232Z,27.95
2023-05-01T15:49:53.921Z,27.93
2023-05-01T15:55:00.396Z,27.94
2023-05-01T16:00:08.884Z,28.23
2023-05-01T16:05:17.329Z,28.16
2023-05-01T16:10:23.231Z,27.96
2023-05-01T16:15:30.137Z,27.69
2023-05-01T16:20:41.762Z,27.11
2023-05-01T16:25:47.362Z,27.44
2023-05-01T16:30:52.936Z,27.84
2023-05-01T16:35:59.555Z,27.69
2023-05-01T16:41:05.314Z,28.01
2023-05-01T16:46:12.443Z,28.43
2023-05-01T16:51:20.059Z,28.63
2023-05-01T16:56:25.749Z,29.29
2023-05-01T17:01:31.364Z,29.48
2023-05-01T17:06:37.369Z,29.55
2023-05-01T17:11:43.182Z,29.76
2023-05-01T17:16:50.164Z,30.28
2023-05-01T17:21:58.255Z,30.50
2023-05-01T17:27:03.796Z,30.97
2023-05-01T17:32:09.511Z,32.15
2023-05-01T17:37:15.468Z,32.33
2023-05-01T17:42:29.826Z,32.68
2023-05-01T17:47:35.845Z,33.15
2023-05-01T17:52:43.503Z,33.10
2023-05-01T17:57:48.988Z,33.91
2023-05-01T18:02:55.741Z,35.46
2023-05-01T18:08:02.102Z,36.44
2023-05-01T18:13:07.985Z,37.36
2023-05-01T18:18:13.527Z,39.09
2023-05-01T18:23:19.563Z,40.77
2023-05-01T18:28:25.059Z,41.72
2023-05-01T18:33:30.640Z,41.92
2023-05-01T18:38:38.754Z,42.43
2023-05-01T18:43:44.753Z,42.39
2023-05-01T18:48:50.854Z,41.34
2023-05-01T18:53:56.736Z,40.54
2023-05-01T18:59:02.583Z,43.12
2023-05-01T19:04:08.104Z,43.81
2023-05-01T19:09:13.622Z,43.44
2023-05-01T19:14:21.483Z,42.40
2023-05-01T19:19:27.191Z,41.68
2023-05-01T19:24:33.119Z,41.63
2023-05-01T19:29:39.771Z,41.46
2023-05-01T19:34:45.374Z,41.39
2023-05-01T19:39:51.013Z,41.39
2023-05-01T19:44:56.670Z,41.21
2023-05-01T19:50:02.557Z,41.60
2023-05-01T19:55:09.530Z,41.31
2023-05-01T20:00:17.152Z,41.23
2023-05-01T20:05:27.950Z,41.29
2023-05-01T20:10:33.788Z,41.34
2023-05-01T20:15:39.681Z,41.44
2023-05-01T20:20:45.468Z,41.40
2023-05-01T20:25:57.836Z,41.45
2023-05-01T20:31:03.670Z,41.54
2023-05-01T20:36:09.329Z,42.03
2023-05-01T20:41:15.465Z,41.92
2023-05-01T20:46:22.166Z,43.22
2023-05-01T20:51:28.335Z,43.24
2023-05-01T20:56:33.874Z,43.37
2023-05-01T21:01:39.448Z,44.81
2023-05-01T21:06:45.600Z,45.19
2023-05-01T21:11:51.845Z,45.58
2023-05-01T21:16:57.854Z,46.76
2023-05-01T21:22:03.879Z,46.08
2023-05-01T21:27:09.909Z,46.59
2023-05-01T21:32:17.934Z,46.39
2023-05-01T21:37:23.573Z,47.64
2023-05-01T21:42:34.683Z,50.24
2023-05-01T21:47:41.562Z,52.28
2023-05-01T21:52:49.421Z,53.76
2023-05-01T21:57:58.512Z,53.74
2023-05-01T22:03:07.063Z,55.02
2023-05-01T22:08:12.813Z,55.97
2023-05-01T22:13:18.817Z,56.51
2023-05-01T22:18:24.510Z,56.43
2023-05-01T22:23:30.393Z,58.53
2023-05-01T22:28:35.872Z,59.75
2023-05-01T22:33:41.657Z,61.33
2023-05-01T22:38:47.298Z,62.97
2023-05-01T22:43:52.990Z,64.49
2023-05-01T22:48:59.720Z,64.65
2023-05-01T22:54:05.315Z,64.84
2023-05-01T22:59:11.148Z,65.47
2023-05-01T23:04:17.043Z,65.44
2023-05-01T23:09:22.930Z,63.98
2023-05-01T23:14:28.762Z,63.48
2023-05-01T23:19:34.290Z,63.20
2023-05-01T23:24:44.263Z,63.07
2023-05-01T23:29:54.590Z,62.11
2023-05-01T23:35:05.437Z,61.25
2023-05-01T23:40:12.101Z,60.17
2023-05-01T23:45:18.282Z,60.62
2023-05-01T23:50:25.418Z,60.65
2023-05-01T23:55:31.856Z,59.72
